Station: Ingolstadt, ICAO: ETSI, Synop: Synop: 10860,
Koordinaten: 4843'00''N 01132'00''E, Hoehe: 367m, Entfernung: 8.15km
2017/12/15 04:20
ETSI 150420Z 25015KT 9999 BKN027 04/01 Q0995 BLU


Station: Neuburg / Donau, ICAO: ETSN, Synop: Synop: 10853,
Koordinaten: 4843'00''N 01113'00''E, Hoehe: 380m, Entfernung: 18.70km
2017/12/15 04:20
ETSN 150420Z 25018G28KT 9999 FEW020 BKN150 04/00 Q0995 BLU


Station: Munchen, ICAO: EDDM, Synop: Synop: 10866,
Koordinaten: 4821'00''N 01147'00''E, Hoehe: 453m, Entfernung: 52.51km
2017/12/15 04:20
EDDM 150420Z 23018KT 9999 FEW023 BKN120 04/00 Q0995 TEMPO 24020G30KT 4000 SHSNRA BKN012CB


Station: Augsburg, ICAO: EDMA, Synop: Synop: 10852,
Koordinaten: 4826'00''N 01056'00''E, Hoehe: 461m, Entfernung: 53.80km
2017/12/15 04:20
EDMA 150420Z AUTO 24015KT 9999 // BKN160/// 03/M00 Q0995


Station: Roth, ICAO: ETHR, Synop: Synop: 10765,
Koordinaten: 4913'00''N 01106'00''E, Hoehe: 388m, Entfernung: 56.01km
2013/12/05 06:53
ETHR 050653Z 25004KT 1200 BR OVC003 02/02 Q1027 AMB


Station: HOHENFELS (USAF), ICAO: EDIH, Synop: Synop: 10775,
Koordinaten: 49 13 N 011 49 E, Hoehe: 442m, Entfernung: 56.01km


mehr Wetter
WetterInfo - adds.pl 2.6.003 DL3EL © 2004-2017 [154963]